Gilleleje, Denmark
Current Conditions -  °F | °C
As of 6:50 PM on Saturday 25 Oct 2014 (Local Time) from ESTA Reporting Station
Haze Haze  
Wind Chill: 11°   Ceiling: 300
Heat Index: 11°   Visibility: 1.3mi
Dew Point: 10°   Wind: 9mph
Humidity: 94%   Direction: 170°S
Pressure: 30"   Gusts: NA
Location:  56.12°N, 12.31°E
Report Text: ESTA 251650Z AUTO 17008KT 2100 BR OVC003/// 11/10 Q1016
Loading
Personal Weather Stations






























Interactive Weather Map
Tropical Storm Tracking
New forecast layout! Learn more

10-Day Weather Forecast

Advertisements
Track Severe Weather on mobile